Time;durP1;ratioP1;P1;durP2;ratioP2;P2;SDS_P1;SDS_P2;PMS_P1;PMS_P2;Temp;Humidity;BMP_temperature;BMP_pressure;BME280_temperature;BME280_humidity;BME280_pressure;Samples;Min_cycle;Max_cycle;Signal;HPM_P1;HPM_P2
2022/09/01 00:01:30;;;;;;;9.60;9.20;;;;;;;20.83;100.00;100705.88;5058032;28;20346;-64
2022/09/01 00:04:01;;;;;;;10.05;9.63;;;;;;;20.78;100.00;100696.84;5054321;28;20025;-64
2022/09/01 00:06:27;;;;;;;10.05;9.63;;;;;;;20.79;100.00;100699.34;5068829;28;20578;-65
2022/09/01 00:08:55;;;;;;;9.68;9.27;;;;;;;20.80;100.00;100702.84;5061048;28;20112;-64
2022/09/01 00:11:22;;;;;;;9.88;9.48;;;;;;;20.81;100.00;100704.50;5066866;28;20028;-65
2022/09/01 00:13:49;;;;;;;9.77;9.38;;;;;;;20.77;100.00;100712.22;5053432;28;20550;-64
2022/09/01 00:16:17;;;;;;;10.10;9.70;;;;;;;20.72;100.00;100708.63;5074000;28;20024;-65
2022/09/01 00:18:50;;;;;;;10.00;9.60;;;;;;;20.60;100.00;100706.75;5055253;28;20021;-64
2022/09/01 00:21:28;;;;;;;9.98;9.57;;;;;;;20.64;100.00;100701.72;5054120;28;20025;-65
2022/09/01 00:23:54;;;;;;;10.18;9.73;;;;;;;20.64;100.00;100701.72;5053809;28;20029;-64
2022/09/01 00:26:19;;;;;;;10.38;9.88;;;;;;;20.47;100.00;100690.81;5053912;28;20506;-65
2022/09/01 00:28:44;;;;;;;10.07;9.65;;;;;;;20.59;100.00;100693.50;5059853;28;20040;-64
2022/09/01 00:31:10;;;;;;;10.13;9.68;;;;;;;20.59;100.00;100698.91;5053398;28;20063;-65
2022/09/01 00:33:37;;;;;;;9.88;9.48;;;;;;;20.52;100.00;100698.19;5054354;28;20032;-64
2022/09/01 00:36:04;;;;;;;10.23;9.73;;;;;;;20.51;100.00;100691.19;5066326;28;20027;-64
2022/09/01 00:38:30;;;;;;;9.90;9.50;;;;;;;20.53;100.00;100692.56;5051873;28;20024;-65
2022/09/01 00:40:56;;;;;;;9.70;9.30;;;;;;;20.46;100.00;100691.06;5053189;28;20099;-64
2022/09/01 00:43:36;;;;;;;9.75;9.35;;;;;;;20.40;100.00;100695.47;5061146;28;20100;-64
2022/09/01 00:46:06;;;;;;;9.98;9.57;;;;;;;20.43;100.00;100693.13;5052455;28;20112;-64
2022/09/01 00:48:32;;;;;;;9.65;9.25;;;;;;;20.41;100.00;100686.31;5064236;28;20052;-64
2022/09/01 00:50:59;;;;;;;9.75;9.35;;;;;;;20.40;100.00;100693.59;5069181;28;20079;-64
2022/09/01 00:53:25;;;;;;;10.23;9.73;;;;;;;20.46;100.00;100689.19;5037748;28;20061;-64
2022/09/01 00:55:50;;;;;;;9.80;9.40;;;;;;;20.50;100.00;100692.22;5067908;28;20052;-64
2022/09/01 00:58:16;;;;;;;10.05;9.63;;;;;;;20.35;100.00;100690.00;5053787;28;20475;-64
2022/09/01 01:00:44;;;;;;;9.63;9.23;;;;;;;20.38;100.00;100684.13;5056486;28;20024;-64
2022/09/01 01:03:11;;;;;;;10.13;9.70;;;;;;;20.26;100.00;100684.09;5061523;28;20029;-64
2022/09/01 01:05:46;;;;;;;9.75;9.35;;;;;;;20.34;100.00;100685.63;5035175;28;20435;-64
2022/09/01 01:08:12;;;;;;;9.95;9.55;;;;;;;20.12;100.00;100677.31;5057163;28;20392;-64
2022/09/01 01:10:41;;;;;;;9.80;9.40;;;;;;;20.35;100.00;100681.91;5052986;28;20035;-64
2022/09/01 01:13:16;;;;;;;10.40;9.90;;;;;;;20.36;100.00;100680.84;5052723;28;20055;-64
2022/09/01 01:15:43;;;;;;;9.82;9.43;;;;;;;20.36;100.00;100681.66;5066457;28;20035;-64
2022/09/01 01:18:11;;;;;;;9.88;9.48;;;;;;;20.33;100.00;100678.59;5072755;28;20054;-63
2022/09/01 01:23:35;;;;;;;9.70;9.30;;;;;;;20.33;100.00;100689.38;5071127;28;20078;-64
2022/09/01 01:26:03;;;;;;;9.65;9.25;;;;;;;20.36;100.00;100683.53;5069140;28;20075;-64
2022/09/01 01:28:33;;;;;;;9.93;9.52;;;;;;;20.36;100.00;100684.34;5049748;28;20021;-64
2022/09/01 01:31:04;;;;;;;9.63;9.23;;;;;;;20.35;100.00;100688.09;5052412;28;20025;-64
2022/09/01 01:33:40;;;;;;;9.98;9.57;;;;;;;20.34;100.00;100691.03;5052137;28;20101;-64
2022/09/01 01:36:16;;;;;;;10.50;10.00;;;;;;;20.28;100.00;100698.19;5051089;28;20427;-64
2022/09/01 01:38:45;;;;;;;10.02;9.63;;;;;;;20.27;100.00;100693.00;5049186;28;20078;-63
2022/09/01 01:41:12;;;;;;;10.30;9.80;;;;;;;20.21;100.00;100699.34;5065328;28;20104;-64
2022/09/01 01:43:39;;;;;;;10.32;9.82;;;;;;;20.15;100.00;100693.03;5055708;28;20025;-64
2022/09/01 01:46:10;;;;;;;10.07;9.68;;;;;;;20.12;100.00;100697.00;5052185;28;20097;-65
2022/09/01 01:48:39;;;;;;;10.20;9.73;;;;;;;20.16;100.00;100697.34;5081322;28;20411;-65
2022/09/01 01:51:05;;;;;;;9.98;9.57;;;;;;;20.09;100.00;100702.84;5086675;28;20034;-64
2022/09/01 01:53:32;;;;;;;10.00;9.60;;;;;;;20.09;100.00;100710.94;5078006;28;20020;-64
2022/09/01 01:55:59;;;;;;;10.00;9.60;;;;;;;20.07;100.00;100704.97;5078620;28;20031;-63
2022/09/01 01:58:27;;;;;;;10.40;9.90;;;;;;;20.03;100.00;100708.34;5092355;28;20547;-64
2022/09/01 02:00:54;;;;;;;9.95;9.55;;;;;;;19.92;100.00;100714.56;5092513;28;20480;-65
2022/09/01 02:03:24;;;;;;;9.77;9.38;;;;;;;19.91;100.00;100712.91;5079186;28;20024;-64
2022/09/01 02:05:53;;;;;;;9.65;9.25;;;;;;;19.85;100.00;100717.34;5065185;28;20028;-64
2022/09/01 02:08:21;;;;;;;9.98;9.57;;;;;;;19.85;100.00;100714.66;5084280;28;20059;-65
2022/09/01 02:10:49;;;;;;;10.25;9.75;;;;;;;19.81;100.00;100713.47;5088610;28;20507;-65
2022/09/01 02:13:17;;;;;;;10.32;9.82;;;;;;;19.77;100.00;100712.28;5080809;28;20031;-65
2022/09/01 02:15:49;;;;;;;10.07;9.63;;;;;;;19.75;100.00;100717.06;5091930;28;20482;-64
2022/09/01 02:18:27;;;;;;;10.45;9.95;;;;;;;19.70;100.00;100716.97;5083897;28;20040;-65
2022/09/01 02:20:54;;;;;;;9.70;9.30;;;;;;;19.71;100.00;100723.97;5080222;28;20020;-64
2022/09/01 02:23:23;;;;;;;9.73;9.32;;;;;;;19.61;100.00;100716.47;5079420;28;20090;-64
2022/09/01 02:25:52;;;;;;;10.55;10.05;;;;;;;19.63;100.00;100724.31;5083783;28;20028;-65
2022/09/01 02:28:21;;;;;;;9.75;9.35;;;;;;;19.58;100.00;100717.72;5085295;28;20435;-64
2022/09/01 02:30:52;;;;;;;9.63;9.23;;;;;;;19.53;100.00;100720.25;5074899;28;20020;-64
2022/09/01 02:33:18;;;;;;;9.73;9.32;;;;;;;19.40;100.00;100711.56;5078932;28;20024;-65
2022/09/01 02:35:46;;;;;;;10.13;9.70;;;;;;;19.35;100.00;100722.19;5074626;28;20020;-65
2022/09/01 02:38:13;;;;;;;9.70;9.30;;;;;;;19.36;100.00;100718.44;5078860;28;20400;-64
2022/09/01 02:40:43;;;;;;;9.68;9.27;;;;;;;19.35;100.00;100719.50;5081156;28;20421;-65
2022/09/01 02:43:10;;;;;;;9.88;9.48;;;;;;;19.39;100.00;100720.66;5091264;28;20031;-64
2022/09/01 02:45:36;;;;;;;10.13;9.70;;;;;;;19.27;100.00;100726.81;5080035;28;20060;-64
2022/09/01 02:48:08;;;;;;;10.00;9.60;;;;;;;19.31;100.00;100724.50;5067735;28;20492;-64
2022/09/01 02:50:35;;;;;;;9.90;9.50;;;;;;;19.22;100.00;100725.84;5063332;28;20388;-64
2022/09/01 02:53:00;;;;;;;9.95;9.55;;;;;;;19.21;100.00;100732.28;5068324;28;20573;-64
2022/09/01 02:55:26;;;;;;;10.27;9.77;;;;;;;19.08;100.00;100727.88;5050449;28;20095;-64
2022/09/01 02:57:55;;;;;;;10.20;9.80;;;;;;;19.02;100.00;100728.78;5050709;28;20164;-64
2022/09/01 03:00:27;;;;;;;10.32;9.82;;;;;;;19.01;100.00;100733.34;5050686;28;20067;-65
2022/09/01 03:02:55;;;;;;;10.48;9.98;;;;;;;18.96;100.00;100735.91;5051151;28;20040;-64
2022/09/01 03:05:25;;;;;;;10.65;10.15;;;;;;;19.06;100.00;100738.06;5050614;28;20480;-64
2022/09/01 03:08:09;;;;;;;10.20;9.70;;;;;;;18.94;100.00;100739.84;5050340;28;20033;-65
2022/09/01 03:10:40;;;;;;;10.40;9.90;;;;;;;18.83;100.00;100735.22;5020332;28;20675;-65
2022/09/01 03:13:13;;;;;;;10.63;10.13;;;;;;;18.88;100.00;100736.22;5049782;28;20025;-64
2022/09/01 03:15:39;;;;;;;9.90;9.48;;;;;;;18.83;100.00;100743.28;5052564;28;20040;-65
2022/09/01 03:18:06;;;;;;;10.18;9.68;;;;;;;18.77;100.00;100734.25;5050214;28;20715;-65
2022/09/01 03:20:34;;;;;;;10.43;9.93;;;;;;;18.80;100.00;100733.78;5046273;28;20017;-64
2022/09/01 03:23:03;;;;;;;10.50;10.00;;;;;;;18.83;100.00;100737.91;5057032;28;20031;-64
2022/09/01 03:25:29;;;;;;;10.23;9.73;;;;;;;18.85;100.00;100741.19;5054680;28;20431;-65
2022/09/01 03:28:00;;;;;;;10.30;9.80;;;;;;;18.87;100.00;100747.16;5054342;28;20036;-64
2022/09/01 03:30:28;;;;;;;10.50;10.00;;;;;;;18.87;100.00;100745.28;5070340;28;20440;-64
2022/09/01 03:32:58;;;;;;;10.10;9.65;;;;;;;18.92;100.00;100745.44;5073924;28;20017;-63
2022/09/01 03:35:27;;;;;;;10.52;10.02;;;;;;;18.80;100.00;100727.59;5065872;28;20027;-63
2022/09/01 03:37:57;;;;;;;10.13;9.68;;;;;;;18.91;100.00;100732.25;5054607;28;20217;-64
2022/09/01 03:40:26;;;;;;;10.48;9.98;;;;;;;18.84;100.00;100735.00;5060174;28;20524;-64
2022/09/01 03:42:52;;;;;;;10.00;9.60;;;;;;;18.89;100.00;100739.72;5049953;28;20029;-64
2022/09/01 03:45:19;;;;;;;10.30;9.80;;;;;;;18.91;100.00;100734.94;5054466;28;20025;-65
2022/09/01 03:47:45;;;;;;;9.93;9.52;;;;;;;18.89;100.00;100737.84;5069605;28;20588;-64
2022/09/01 03:50:22;;;;;;;10.27;9.77;;;;;;;18.95;100.00;100742.34;5054681;28;20025;-64
2022/09/01 03:52:55;;;;;;;10.32;9.82;;;;;;;19.08;100.00;100729.75;5064132;28;20102;-64
2022/09/01 03:55:28;;;;;;;10.48;9.98;;;;;;;19.09;100.00;100742.16;5052393;28;20031;-64
2022/09/01 03:57:59;;;;;;;10.57;10.07;;;;;;;19.01;100.00;100736.03;5051507;28;20021;-64
2022/09/01 04:00:28;;;;;;;10.25;9.75;;;;;;;18.98;100.00;100744.56;5053806;28;20082;-64
2022/09/01 04:02:57;;;;;;;10.23;9.73;;;;;;;18.89;100.00;100737.03;5053980;28;20418;-64
2022/09/01 04:05:27;;;;;;;9.82;9.43;;;;;;;18.93;100.00;100736.34;5053912;28;20434;-64
2022/09/01 04:07:59;;;;;;;10.38;9.88;;;;;;;18.88;100.00;100733.53;5052776;28;20029;-63
2022/09/01 04:10:26;;;;;;;10.60;10.10;;;;;;;19.17;100.00;100736.47;5052479;28;20125;-64
2022/09/01 04:12:55;;;;;;;10.30;9.80;;;;;;;19.17;100.00;100736.47;5048651;28;20548;-64
2022/09/01 04:15:21;;;;;;;10.10;9.60;;;;;;;19.36;100.00;100732.72;5066155;28;20025;-64
2022/09/01 04:20:38;;;;;;;9.90;9.50;;;;;;;19.27;100.00;100734.06;5054159;28;20553;-63
2022/09/01 04:23:09;;;;;;;10.63;10.13;;;;;;;19.37;100.00;100725.47;5054386;28;20447;-64
2022/09/01 04:25:37;;;;;;;9.70;9.30;;;;;;;19.21;100.00;100724.22;5053968;28;20032;-64
2022/09/01 04:28:11;;;;;;;10.10;9.60;;;;;;;19.33;100.00;100727.78;5060007;28;20435;-64
2022/09/01 04:30:41;;;;;;;9.70;9.30;;;;;;;19.43;100.00;100721.84;5050719;28;20013;-64
2022/09/01 04:33:07;;;;;;;10.32;9.82;;;;;;;19.35;100.00;100730.25;5034911;28;20044;-65
2022/09/01 04:35:39;;;;;;;9.93;9.52;;;;;;;19.27;100.00;100729.50;5054255;28;20017;-64
2022/09/01 04:38:07;;;;;;;10.50;10.00;;;;;;;19.34;100.00;100734.81;5072362;28;20028;-65
2022/09/01 04:40:41;;;;;;;10.30;9.80;;;;;;;19.38;100.00;100743.22;5074311;28;20021;-65
2022/09/01 04:43:08;;;;;;;9.77;9.35;;;;;;;19.45;100.00;100738.59;5056367;28;20029;-65
2022/09/01 04:45:35;;;;;;;10.55;10.05;;;;;;;19.43;100.00;100743.38;5054008;28;20028;-65
2022/09/01 04:48:03;;;;;;;9.82;9.43;;;;;;;19.22;100.00;100742.00;5065425;28;20053;-65
2022/09/01 04:50:29;;;;;;;10.80;10.30;;;;;;;19.24;100.00;100737.19;5073117;28;20021;-65
2022/09/01 04:53:01;;;;;;;10.00;9.55;;;;;;;19.22;100.00;100742.00;5085542;28;20174;-65
2022/09/01 04:55:28;;;;;;;9.90;9.50;;;;;;;19.37;100.00;100734.34;5075267;28;20031;-65
2022/09/01 04:57:56;;;;;;;10.73;10.23;;;;;;;19.58;100.00;100730.38;5076569;28;20024;-66
2022/09/01 05:00:23;;;;;;;12.18;11.57;;;;;;;19.45;100.00;100735.91;5059719;28;20036;-65
2022/09/01 05:03:00;;;;;;;10.50;10.00;;;;;;;19.77;100.00;100736.53;5077523;28;20506;-65
2022/09/01 05:05:26;;;;;;;9.82;9.43;;;;;;;19.56;100.00;100729.75;5093111;28;20035;-66
2022/09/01 05:07:51;;;;;;;10.20;9.73;;;;;;;19.86;100.00;100732.44;5073318;28;20024;-66
2022/09/01 05:10:18;;;;;;;10.45;9.95;;;;;;;19.97;100.00;100730.81;5072467;28;20107;-65
2022/09/01 05:12:44;;;;;;;10.30;9.80;;;;;;;20.01;100.00;100743.59;5075209;28;20800;-65
2022/09/01 05:15:12;;;;;;;10.00;9.60;;;;;;;19.98;100.00;100746.75;5072780;28;20032;-66
2022/09/01 05:17:39;;;;;;;10.15;9.65;;;;;;;19.94;100.00;100736.66;5065125;28;20054;-65
2022/09/01 05:20:05;;;;;;;10.00;9.60;;;;;;;20.00;100.00;100747.34;5071863;28;20043;-66
2022/09/01 05:22:31;;;;;;;10.18;9.73;;;;;;;20.02;100.00;100747.91;5086631;28;20070;-66
2022/09/01 05:25:11;;;;;;;10.50;10.00;;;;;;;19.85;100.00;100738.88;5079577;28;20020;-65
2022/09/01 05:27:38;;;;;;;10.30;9.80;;;;;;;23.16;100.00;100747.88;5090842;28;20035;-66
2022/09/01 05:30:07;;;;;;;10.90;10.40;;;;;;;26.58;100.00;100740.41;5080101;28;20082;-65
2022/09/01 05:32:36;;;;;;;10.93;10.43;;;;;;;29.60;92.45;100750.47;5079222;28;20020;-64
2022/09/01 05:35:07;;;;;;;10.30;9.82;;;;;;;30.57;84.24;100744.22;5072001;28;20392;-64
2022/09/01 05:37:34;;;;;;;10.75;10.25;;;;;;;31.55;75.70;100754.81;5077055;28;20373;-63
2022/09/01 05:40:01;;;;;;;10.23;9.82;;;;;;;32.60;68.70;100744.22;5071246;28;20020;-62
2022/09/01 05:42:27;;;;;;;10.20;9.80;;;;;;;33.36;63.95;100759.63;5087008;28;20475;-64
2022/09/01 05:44:53;;;;;;;10.05;9.65;;;;;;;29.88;78.16;100749.50;5091961;28;20020;-63
2022/09/01 05:47:20;;;;;;;9.77;9.38;;;;;;;28.13;90.82;100744.78;5085391;28;20034;-64
2022/09/01 05:49:47;;;;;;;9.98;9.57;;;;;;;27.45;94.04;100742.81;5072268;28;20020;-64
2022/09/01 05:52:14;;;;;;;10.00;9.60;;;;;;;27.30;96.03;100746.44;5059711;28;20091;-63
2022/09/01 05:54:40;;;;;;;10.35;9.88;;;;;;;27.14;96.94;100747.59;5051903;28;20025;-63
2022/09/01 05:57:06;;;;;;;10.02;9.63;;;;;;;26.34;100.00;100742.06;5052341;28;20028;-63
2022/09/01 05:59:32;;;;;;;10.10;9.70;;;;;;;26.00;100.00;100752.69;5071689;28;20081;-62
2022/09/01 06:01:59;;;;;;;10.13;9.73;;;;;;;25.59;100.00;100747.19;5055970;28;20036;-63
2022/09/01 06:04:25;;;;;;;10.25;9.82;;;;;;;25.79;100.00;100749.16;5052229;28;20052;-64
2022/09/01 06:06:52;;;;;;;9.90;9.50;;;;;;;26.05;100.00;100752.69;5051899;28;20048;-64
2022/09/01 06:09:18;;;;;;;10.57;10.07;;;;;;;26.29;100.00;100750.22;5051834;28;20104;-63
2022/09/01 06:11:46;;;;;;;10.50;10.00;;;;;;;27.33;98.70;100750.53;5056960;28;20523;-63
2022/09/01 06:14:16;;;;;;;10.73;10.23;;;;;;;30.90;80.95;100755.09;5071389;28;20024;-64
2022/09/01 06:16:42;;;;;;;10.10;9.70;;;;;;;32.33;71.04;100747.97;5065250;28;20035;-64
2022/09/01 06:19:09;;;;;;;9.98;9.57;;;;;;;31.68;72.36;100756.69;5051391;28;20443;-64
2022/09/01 06:21:37;;;;;;;10.10;9.70;;;;;;;29.78;80.02;100759.78;5051740;28;20033;-64
2022/09/01 06:24:03;;;;;;;9.80;9.40;;;;;;;28.81;87.28;100755.59;5071099;28;20032;-64
2022/09/01 06:26:31;;;;;;;9.85;9.45;;;;;;;29.92;81.28;100750.53;5063850;28;20033;-64
2022/09/01 06:29:00;;;;;;;9.90;9.50;;;;;;;28.82;86.36;100760.75;5051559;28;20029;-64
2022/09/01 06:31:32;;;;;;;10.38;9.93;;;;;;;32.43;73.38;100768.84;5062584;28;20048;-64
2022/09/01 06:34:00;;;;;;;10.18;9.77;;;;;;;33.26;62.93;100761.56;5057313;28;20503;-64
2022/09/01 06:36:25;;;;;;;10.38;9.95;;;;;;;34.37;55.65;100763.75;5051220;28;20111;-64
2022/09/01 06:38:52;;;;;;;9.98;9.57;;;;;;;31.85;63.83;100767.81;5051370;28;20063;-64
2022/09/01 06:41:20;;;;;;;10.43;9.98;;;;;;;33.70;59.64;100775.34;5051252;28;20040;-64
2022/09/01 06:43:50;;;;;;;10.18;9.77;;;;;;;32.92;59.14;100767.81;5051316;28;20393;-64
2022/09/01 06:46:18;;;;;;;9.98;9.57;;;;;;;31.99;60.46;100762.28;5051408;28;20025;-64
2022/09/01 06:48:48;;;;;;;10.02;9.63;;;;;;;31.48;62.87;100768.13;5053287;28;20115;-63
2022/09/01 06:51:19;;;;;;;10.18;9.77;;;;;;;31.75;64.26;100772.72;5091798;28;20395;-64
2022/09/01 06:53:55;;;;;;;10.02;9.63;;;;;;;31.36;68.17;100768.66;5091301;28;20024;-64
2022/09/01 06:56:21;;;;;;;9.93;9.52;;;;;;;31.69;65.64;100771.22;5076051;28;20131;-64
2022/09/01 06:58:47;;;;;;;9.77;9.38;;;;;;;31.53;68.31;100762.53;5071287;28;20109;-64
2022/09/01 07:01:18;;;;;;;10.45;9.98;;;;;;;30.59;71.89;100763.88;5070708;28;20507;-64
2022/09/01 07:03:46;;;;;;;10.30;9.90;;;;;;;32.72;60.29;100769.16;5078739;28;20028;-64
2022/09/01 07:06:13;;;;;;;10.50;10.00;;;;;;;32.89;63.49;100762.94;5071086;28;20553;-64
2022/09/01 07:08:39;;;;;;;10.32;9.90;;;;;;;31.64;67.74;100761.97;5081481;28;20676;-64
2022/09/01 07:11:07;;;;;;;9.90;9.50;;;;;;;31.47;69.33;100761.03;5073693;28;20028;-65
2022/09/01 07:13:35;;;;;;;10.00;9.60;;;;;;;32.02;65.30;100758.88;5071684;28;20108;-64
2022/09/01 07:16:03;;;;;;;9.95;9.55;;;;;;;30.95;69.78;100766.78;5071529;28;20348;-64
2022/09/01 07:18:30;;;;;;;10.10;9.70;;;;;;;31.17;68.03;100766.03;5075101;28;20040;-64
2022/09/01 07:20:55;;;;;;;10.10;9.70;;;;;;;30.18;73.69;100755.59;5071424;28;20124;-65
2022/09/01 07:23:22;;;;;;;10.15;9.75;;;;;;;30.34;74.61;100761.63;5066263;28;20126;-64
2022/09/01 07:25:53;;;;;;;9.85;9.45;;;;;;;28.45;78.77;100766.06;5070818;28;20025;-64
2022/09/01 07:28:20;;;;;;;10.20;9.80;;;;;;;26.37;95.00;100761.38;5070977;28;20438;-64
2022/09/01 07:30:47;;;;;;;9.98;9.57;;;;;;;25.70;99.59;100748.00;5070745;28;20123;-63
2022/09/01 07:33:17;;;;;;;9.98;9.57;;;;;;;27.97;88.90;100755.81;5081530;28;20030;-64
2022/09/01 07:35:43;;;;;;;10.00;9.60;;;;;;;24.20;100.00;100749.47;5072301;28;20372;-63
2022/09/01 07:38:09;;;;;;;10.20;9.80;;;;;;;24.08;100.00;100757.75;5091115;28;20020;-64
2022/09/01 07:40:39;;;;;;;10.38;9.90;;;;;;;27.18;97.51;100765.03;5091173;28;20142;-65
2022/09/01 07:43:08;;;;;;;10.00;9.60;;;;;;;27.15;94.43;100765.56;5091336;28;20091;-64
2022/09/01 07:45:36;;;;;;;10.70;10.20;;;;;;;27.50;92.71;100761.84;5073429;28;20188;-64
2022/09/01 07:48:05;;;;;;;10.18;9.77;;;;;;;27.88;91.38;100751.25;5078392;28;20094;-63
2022/09/01 07:50:32;;;;;;;10.20;9.80;;;;;;;28.33;87.82;100750.06;5090852;28;20074;-63
2022/09/01 07:52:59;;;;;;;9.93;9.52;;;;;;;28.31;87.95;100755.81;5077216;28;20433;-63
2022/09/01 07:55:26;;;;;;;9.95;9.55;;;;;;;28.19;86.16;100751.81;5084065;28;20040;-64
2022/09/01 07:57:52;;;;;;;10.43;9.93;;;;;;;28.00;87.03;100749.81;5074109;28;20021;-63
2022/09/01 08:00:20;;;;;;;10.57;10.07;;;;;;;27.65;89.23;100748.13;5074930;28;20426;-64
2022/09/01 08:02:45;;;;;;;9.95;9.55;;;;;;;28.10;87.34;100746.16;5082709;28;20024;-64
2022/09/01 08:05:16;;;;;;;10.60;10.10;;;;;;;27.95;88.27;100746.31;5071814;28;20428;-63
2022/09/01 08:07:46;;;;;;;10.18;9.77;;;;;;;28.56;85.78;100751.22;5075296;28;20047;-63
2022/09/01 08:10:11;;;;;;;10.10;9.70;;;;;;;28.17;86.80;100746.66;5074109;28;20017;-64
2022/09/01 08:12:38;;;;;;;10.00;9.60;;;;;;;27.75;89.58;100741.81;5079667;28;20016;-64
2022/09/01 08:15:05;;;;;;;10.05;9.65;;;;;;;28.97;83.50;100746.13;5094727;28;20065;-64
2022/09/01 08:17:31;;;;;;;10.68;10.18;;;;;;;29.88;79.46;100745.94;5093905;28;20020;-64
2022/09/01 08:19:57;;;;;;;10.30;9.90;;;;;;;28.85;82.64;100738.31;5092184;28;20020;-63
2022/09/01 08:22:24;;;;;;;10.95;10.45;;;;;;;28.35;85.25;100731.50;5093823;28;20038;-63
2022/09/01 08:24:51;;;;;;;10.27;9.88;;;;;;;27.77;86.42;100726.00;5091223;28;20035;-63
2022/09/01 08:27:17;;;;;;;10.00;9.60;;;;;;;27.22;88.10;100733.41;5073453;28;20013;-64
2022/09/01 08:29:43;;;;;;;10.00;9.60;;;;;;;27.48;88.57;100734.06;5076106;28;20021;-65
2022/09/01 08:32:10;;;;;;;9.95;9.55;;;;;;;27.84;88.35;100737.41;5080176;28;20221;-63
2022/09/01 08:34:36;;;;;;;10.13;9.73;;;;;;;27.72;86.35;100739.66;5093079;28;20107;-64
2022/09/01 08:37:03;;;;;;;10.20;9.80;;;;;;;28.60;82.52;100733.97;5093811;28;20016;-64
2022/09/01 08:39:29;;;;;;;9.60;9.20;;;;;;;28.03;85.83;100734.78;5094118;28;20035;-64
2022/09/01 08:42:19;;;;;;;10.00;9.60;;;;;;;28.38;84.18;100741.03;5083696;28;20028;-63
2022/09/01 08:45:01;;;;;;;9.80;9.40;;;;;;;27.81;86.27;100733.31;5086001;28;20028;-63
2022/09/01 08:47:27;;;;;;;9.65;9.25;;;;;;;27.58;86.06;100733.19;5093464;28;20070;-65
2022/09/01 08:49:52;;;;;;;10.00;9.60;;;;;;;27.08;89.18;100724.22;5093489;28;20063;-64
2022/09/01 08:52:44;;;;;;;9.80;9.40;;;;;;;27.06;89.59;100727.22;5093594;28;20027;-64
2022/09/01 08:55:13;;;;;;;10.52;10.02;;;;;;;26.99;89.26;100723.94;5081306;28;20471;-65
2022/09/01 08:57:41;;;;;;;10.10;9.70;;;;;;;26.82;90.86;100720.75;5082363;28;20432;-63
2022/09/01 09:00:11;;;;;;;10.20;9.80;;;;;;;27.05;89.95;100719.34;5078218;28;20025;-64
2022/09/01 09:02:51;;;;;;;10.10;9.70;;;;;;;26.96;89.89;100727.25;5076972;28;20020;-64
2022/09/01 09:05:31;;;;;;;10.20;9.80;;;;;;;26.99;89.80;100723.94;5090742;28;20028;-65
2022/09/01 09:08:29;;;;;;;10.57;10.07;;;;;;;26.89;90.44;100724.00;5080559;28;20032;-63
2022/09/01 09:11:15;;;;;;;10.13;9.73;;;;;;;26.74;91.27;100727.59;5081443;28;20101;-65
2022/09/01 09:13:43;;;;;;;10.07;9.68;;;;;;;26.67;92.59;100727.06;5092143;28;20049;-63
2022/09/01 09:16:24;;;;;;;10.20;9.77;;;;;;;27.02;91.58;100720.66;5087793;28;20115;-64
2022/09/01 09:18:56;;;;;;;10.00;9.60;;;;;;;27.02;90.92;100723.38;5082767;28;20092;-63
2022/09/01 09:21:28;;;;;;;10.43;9.93;;;;;;;27.83;86.77;100719.38;5092937;28;20027;-64
2022/09/01 09:24:20;;;;;;;10.18;9.77;;;;;;;27.40;88.79;100710.16;5080639;28;20095;-64
2022/09/01 09:26:50;;;;;;;10.15;9.75;;;;;;;27.43;89.83;100715.03;5054489;28;20040;-64
2022/09/01 09:29:17;;;;;;;10.20;9.80;;;;;;;28.04;85.80;100709.13;5080887;28;20032;-63
2022/09/01 09:31:47;;;;;;;10.00;9.60;;;;;;;28.31;84.35;100712.19;5078805;28;20103;-64
2022/09/01 09:34:35;;;;;;;9.93;9.52;;;;;;;27.23;88.50;100716.78;5078982;28;20099;-64
2022/09/01 09:37:21;;;;;;;10.23;9.82;;;;;;;27.04;90.50;100714.97;5092639;28;20028;-63
2022/09/01 09:40:07;;;;;;;10.20;9.80;;;;;;;26.83;91.44;100715.03;5092715;28;20487;-64
2022/09/01 09:42:32;;;;;;;9.85;9.45;;;;;;;27.54;89.17;100714.69;5092639;28;20024;-64
2022/09/01 09:44:58;;;;;;;10.20;9.80;;;;;;;26.59;91.28;100706.69;5092495;28;20024;-64
2022/09/01 09:47:45;;;;;;;10.45;9.95;;;;;;;27.16;87.73;100712.72;5092639;28;20030;-64
2022/09/01 09:50:24;;;;;;;9.73;9.32;;;;;;;27.74;85.02;100713.75;5087092;28;20566;-64
2022/09/01 09:53:09;;;;;;;9.90;9.50;;;;;;;28.09;83.82;100706.38;5085803;28;20027;-64
2022/09/01 09:55:35;;;;;;;9.93;9.52;;;;;;;28.40;81.71;100715.09;5083529;28;20103;-63
2022/09/01 09:58:10;;;;;;;9.98;9.57;;;;;;;28.84;78.33;100703.91;5075118;28;20507;-63
2022/09/01 10:00:37;;;;;;;9.82;9.43;;;;;;;29.12;76.24;100715.06;5080125;28;20110;-63
2022/09/01 10:03:09;;;;;;;10.07;9.68;;;;;;;30.14;71.38;100705.34;5084110;28;20513;-65
2022/09/01 10:05:42;;;;;;;9.85;9.45;;;;;;;29.53;69.18;100703.59;5091909;28;20034;-64
2022/09/01 10:08:36;;;;;;;10.35;9.90;;;;;;;29.54;62.38;100699.75;5073074;28;20035;-64
2022/09/01 10:11:04;;;;;;;10.10;9.70;;;;;;;26.14;74.98;100693.94;5091901;28;20024;-64
2022/09/01 10:13:31;;;;;;;9.73;9.32;;;;;;;24.37;82.20;100701.34;5092143;28;20024;-65
2022/09/01 10:16:03;;;;;;;9.98;9.57;;;;;;;26.44;78.62;100698.53;5091956;28;20407;-64
2022/09/01 10:18:37;;;;;;;10.52;10.02;;;;;;;28.08;69.16;100697.38;5090315;28;20039;-64
2022/09/01 10:21:12;;;;;;;;;;;;;;;28.53;63.69;100689.84;5087020;28;20047;-64
2022/09/01 10:23:38;;;;;;;9.95;9.55;;;;;;;28.61;61.54;100696.56;5071829;28;20337;-64
2022/09/01 10:26:17;;;;;;;10.18;9.77;;;;;;;28.61;61.50;100693.84;5078446;28;20028;-64
2022/09/01 10:28:56;;;;;;;9.70;9.30;;;;;;;29.15;59.22;100692.63;5091734;28;20031;-64
2022/09/01 10:31:22;;;;;;;10.20;9.80;;;;;;;28.53;59.56;100691.75;5090852;28;20496;-63
2022/09/01 10:33:48;;;;;;;10.00;9.60;;;;;;;28.21;61.25;100695.06;5091658;28;20028;-63
2022/09/01 10:36:15;;;;;;;10.55;10.05;;;;;;;26.57;63.61;100692.53;5091759;28;20016;-65
2022/09/01 10:38:41;;;;;;;9.88;9.48;;;;;;;27.75;63.64;100688.09;5091997;28;20024;-64
2022/09/01 10:41:07;;;;;;;9.85;9.45;;;;;;;27.70;60.74;100688.16;5086942;28;20510;-63
2022/09/01 10:43:40;;;;;;;10.10;9.70;;;;;;;26.30;67.35;100683.88;5064608;28;20032;-63
2022/09/01 10:46:20;;;;;;;9.68;9.27;;;;;;;28.09;61.68;100687.28;5091669;28;20031;-63
2022/09/01 10:48:52;;;;;;;10.07;9.68;;;;;;;28.63;61.84;100692.44;5091555;28;20562;-63
2022/09/01 10:51:17;;;;;;;10.40;9.90;;;;;;;27.93;64.23;100683.88;5091662;28;20154;-64
2022/09/01 10:53:48;;;;;;;9.85;9.45;;;;;;;28.36;63.66;100681.31;5091716;28;20111;-64
2022/09/01 10:56:24;;;;;;;10.10;9.70;;;;;;;27.63;65.62;100684.09;5077273;28;20075;-64
2022/09/01 10:59:09;;;;;;;9.48;9.07;;;;;;;25.13;79.75;100684.63;5074353;28;20086;-64
2022/09/01 11:01:44;;;;;;;9.90;9.50;;;;;;;25.19;80.88;100680.84;5069371;28;20024;-63
2022/09/01 11:04:20;;;;;;;9.80;9.40;;;;;;;25.08;80.97;100690.03;5088260;28;20056;-64
2022/09/01 11:07:03;;;;;;;9.90;9.50;;;;;;;25.92;78.10;100686.09;5079861;28;20495;-64
2022/09/01 11:09:37;;;;;;;10.13;9.73;;;;;;;26.12;74.25;100686.06;5072443;28;20027;-64
2022/09/01 11:12:21;;;;;;;9.98;9.57;;;;;;;27.28;69.64;100677.81;5091278;28;20027;-64
2022/09/01 11:14:52;;;;;;;10.10;9.70;;;;;;;26.90;70.70;100688.31;5080890;28;20028;-64
2022/09/01 11:17:18;;;;;;;9.98;9.57;;;;;;;27.43;69.58;100680.41;5070912;28;20023;-64
2022/09/01 11:19:57;;;;;;;9.90;9.50;;;;;;;27.26;67.40;100669.91;5070818;28;20024;-64
2022/09/01 11:22:42;;;;;;;9.68;9.27;;;;;;;27.36;71.17;100666.31;5082320;28;20066;-64
2022/09/01 11:25:34;;;;;;;9.63;9.23;;;;;;;27.22;70.54;100660.66;5077540;28;20054;-63
2022/09/01 11:27:59;;;;;;;9.90;9.50;;;;;;;26.30;76.22;100664.84;5090945;28;20035;-64
2022/09/01 11:30:53;;;;;;;10.35;9.88;;;;;;;25.20;79.11;100670.81;5090986;28;20024;-64
2022/09/01 11:33:38;;;;;;;10.25;9.80;;;;;;;26.17;78.76;100674.38;5077788;28;20068;-63
2022/09/01 11:36:05;;;;;;;;;;;;;;;26.77;74.90;100669.06;5091263;28;20077;-65